Time;durP1;ratioP1;P1;durP2;ratioP2;P2;SDS_P1;SDS_P2;PMS_P1;PMS_P2;Temp;Humidity;BMP_temperature;BMP_pressure;BME280_temperature;BME280_humidity;BME280_pressure;Samples;Min_cycle;Max_cycle;Signal;HPM_P1;HPM_P2
2022/03/25 00:02:15;;;;;;;0.80;0.80;;;;;;;;;;5053143;28;20231;-72
2022/03/25 00:04:42;;;;;;;0.70;0.70;;;;;;;;;;5051424;28;20193;-73
2022/03/25 00:07:09;;;;;;;1.50;1.40;;;;;;;;;;5052149;28;20239;-73
2022/03/25 00:09:36;;;;;;;0.70;0.68;;;;;;;;;;5052307;28;20219;-73
2022/03/25 00:12:05;;;;;;;0.80;0.80;;;;;;;;;;5050096;28;20232;-73
2022/03/25 00:14:32;;;;;;;0.70;0.70;;;;;;;;;;5051547;28;20673;-73
2022/03/25 00:16:59;;;;;;;0.90;0.90;;;;;;;;;;5052930;28;20169;-72
2022/03/25 00:19:26;;;;;;;0.80;0.70;;;;;;;;;;5034998;28;20194;-73
2022/03/25 00:21:52;;;;;;;0.80;0.75;;;;;;;;;;5068789;28;20225;-73
2022/03/25 00:24:19;;;;;;;0.70;0.70;;;;;;;;;;5052571;28;20295;-73
2022/03/25 00:26:46;;;;;;;0.93;0.93;;;;;;;;;;5051847;28;20284;-73
2022/03/25 00:29:15;;;;;;;1.38;1.27;;;;;;;;;;5053142;28;20201;-72
2022/03/25 00:31:42;;;;;;;0.80;0.70;;;;;;;;;;5053043;28;20240;-73
2022/03/25 00:34:09;;;;;;;1.08;1.00;;;;;;;;;;5067626;28;20201;-73
2022/03/25 00:36:36;;;;;;;0.73;0.70;;;;;;;;;;5049223;28;20244;-74
2022/03/25 00:39:03;;;;;;;0.73;0.70;;;;;;;;;;5052064;28;20212;-74
2022/03/25 00:41:36;;;;;;;0.70;0.60;;;;;;;;;;5036057;28;20221;-74
2022/03/25 00:44:04;;;;;;;0.90;0.90;;;;;;;;;;5051386;28;20205;-74
2022/03/25 00:46:32;;;;;;;0.70;0.65;;;;;;;;;;5050935;28;20246;-74
2022/03/25 00:48:59;;;;;;;0.70;0.70;;;;;;;;;;5051908;28;20194;-74
2022/03/25 00:51:26;;;;;;;0.80;0.70;;;;;;;;;;5052350;28;20225;-74
2022/03/25 00:53:53;;;;;;;0.70;0.70;;;;;;;;;;5068256;28;20182;-74
2022/03/25 00:56:20;;;;;;;0.90;0.90;;;;;;;;;;5052258;28;20646;-74
2022/03/25 00:58:47;;;;;;;0.70;0.70;;;;;;;;;;5051939;28;20252;-73
2022/03/25 01:01:15;;;;;;;0.95;0.95;;;;;;;;;;5053068;28;20276;-73
2022/03/25 01:03:45;;;;;;;0.70;0.60;;;;;;;;;;5051806;28;20202;-73
2022/03/25 01:06:12;;;;;;;0.75;0.70;;;;;;;;;;5050050;28;20218;-73
2022/03/25 01:08:40;;;;;;;0.80;0.70;;;;;;;;;;5055616;28;20193;-74
2022/03/25 01:11:07;;;;;;;0.80;0.80;;;;;;;;;;5055340;28;20224;-73
2022/03/25 01:13:34;;;;;;;0.80;0.80;;;;;;;;;;5055192;28;20202;-72
2022/03/25 01:16:01;;;;;;;0.70;0.60;;;;;;;;;;5054751;28;20209;-73
2022/03/25 01:18:28;;;;;;;0.70;0.68;;;;;;;;;;5056088;28;20265;-73
2022/03/25 01:20:57;;;;;;;0.70;0.60;;;;;;;;;;5055483;28;20213;-73
2022/03/25 01:23:24;;;;;;;0.80;0.73;;;;;;;;;;5055804;28;20672;-73
2022/03/25 01:25:51;;;;;;;0.75;0.70;;;;;;;;;;5052900;28;20724;-74
2022/03/25 01:28:20;;;;;;;0.80;0.70;;;;;;;;;;5055494;28;20576;-73
2022/03/25 01:30:47;;;;;;;0.70;0.60;;;;;;;;;;5071416;28;21169;-74
2022/03/25 01:33:16;;;;;;;1.00;0.90;;;;;;;;;;5047192;28;20210;-74
2022/03/25 01:35:43;;;;;;;0.70;0.70;;;;;;;;;;5036256;28;20205;-73
2022/03/25 01:38:13;;;;;;;0.80;0.70;;;;;;;;;;5055183;28;20197;-73
2022/03/25 01:40:41;;;;;;;1.70;1.60;;;;;;;;;;5054385;28;20201;-73
2022/03/25 01:43:10;;;;;;;0.80;0.70;;;;;;;;;;5053787;28;20556;-73
2022/03/25 01:45:37;;;;;;;1.30;1.20;;;;;;;;;;5054479;28;20228;-73
2022/03/25 01:48:09;;;;;;;0.80;0.80;;;;;;;;;;5054966;28;20198;-74
2022/03/25 01:50:39;;;;;;;0.70;0.70;;;;;;;;;;5054906;28;20243;-74
2022/03/25 01:53:11;;;;;;;0.70;0.68;;;;;;;;;;5052628;28;20690;-73
2022/03/25 01:55:43;;;;;;;0.80;0.70;;;;;;;;;;5036482;28;20244;-73
2022/03/25 01:58:14;;;;;;;0.80;0.80;;;;;;;;;;5051232;28;20655;-73
2022/03/25 02:00:44;;;;;;;1.52;0.90;;;;;;;;;;5037051;28;20542;-73
2022/03/25 02:03:16;;;;;;;0.80;0.70;;;;;;;;;;5054392;28;20186;-73
2022/03/25 02:05:46;;;;;;;0.70;0.70;;;;;;;;;;5054361;28;20197;-73
2022/03/25 02:08:17;;;;;;;2.95;1.70;;;;;;;;;;5051928;28;20201;-73
2022/03/25 02:10:52;;;;;;;0.90;0.90;;;;;;;;;;5053607;28;20224;-74
2022/03/25 02:13:23;;;;;;;0.80;0.70;;;;;;;;;;5054396;28;20200;-74
2022/03/25 02:16:14;;;;;;;0.85;0.85;;;;;;;;;;5053857;28;20228;-73
2022/03/25 02:18:43;;;;;;;0.77;0.70;;;;;;;;;;5053783;28;20197;-73
2022/03/25 02:21:12;;;;;;;0.80;0.70;;;;;;;;;;5054590;28;20213;-73
2022/03/25 02:23:45;;;;;;;0.80;0.70;;;;;;;;;;5054431;28;20189;-73
2022/03/25 02:26:15;;;;;;;0.73;0.70;;;;;;;;;;5053980;28;20565;-74
2022/03/25 02:28:45;;;;;;;0.70;0.60;;;;;;;;;;5054474;28;20307;-73
2022/03/25 02:31:17;;;;;;;0.70;0.63;;;;;;;;;;5036182;28;20674;-73
2022/03/25 02:33:47;;;;;;;0.70;0.70;;;;;;;;;;5044981;28;20245;-74
2022/03/25 02:36:17;;;;;;;0.80;0.70;;;;;;;;;;5033505;28;20772;-73
2022/03/25 02:38:48;;;;;;;0.70;0.65;;;;;;;;;;5051719;28;20225;-73
2022/03/25 02:41:20;;;;;;;0.80;0.80;;;;;;;;;;5053000;28;20200;-73
2022/03/25 02:43:48;;;;;;;0.70;0.65;;;;;;;;;;5053896;28;20304;-75
2022/03/25 02:46:20;;;;;;;0.80;0.80;;;;;;;;;;5037337;28;20537;-73
2022/03/25 02:48:52;;;;;;;0.70;0.65;;;;;;;;;;5053152;28;20199;-75
2022/03/25 02:51:22;;;;;;;1.00;1.00;;;;;;;;;;5053054;28;20213;-75
2022/03/25 02:53:57;;;;;;;0.80;0.73;;;;;;;;;;5053693;28;20207;-74
2022/03/25 02:56:25;;;;;;;0.70;0.70;;;;;;;;;;5053816;28;20204;-74
2022/03/25 02:58:54;;;;;;;0.80;0.80;;;;;;;;;;5053263;28;20243;-74
2022/03/25 03:01:22;;;;;;;0.75;0.70;;;;;;;;;;5050155;28;20190;-74
2022/03/25 03:03:50;;;;;;;0.70;0.70;;;;;;;;;;5054220;28;20236;-74
2022/03/25 03:06:17;;;;;;;0.70;0.70;;;;;;;;;;5053192;28;20221;-74
2022/03/25 03:08:45;;;;;;;0.80;0.80;;;;;;;;;;5054665;28;20221;-74
2022/03/25 03:11:13;;;;;;;0.70;0.60;;;;;;;;;;5053767;28;20232;-75
2022/03/25 03:13:40;;;;;;;0.60;0.50;;;;;;;;;;5054715;28;20186;-74
2022/03/25 03:16:09;;;;;;;0.70;0.60;;;;;;;;;;5053664;28;20200;-74
2022/03/25 03:18:35;;;;;;;0.70;0.70;;;;;;;;;;5032631;28;20210;-74
2022/03/25 03:21:03;;;;;;;0.70;0.70;;;;;;;;;;5042589;28;20266;-74
2022/03/25 03:23:30;;;;;;;0.70;0.60;;;;;;;;;;5053724;28;20280;-74
2022/03/25 03:25:57;;;;;;;0.70;0.70;;;;;;;;;;5052870;28;20200;-74
2022/03/25 03:28:25;;;;;;;0.70;0.60;;;;;;;;;;5053265;28;20189;-74
2022/03/25 03:30:55;;;;;;;0.75;0.70;;;;;;;;;;5052334;28;20204;-74
2022/03/25 03:33:23;;;;;;;0.70;0.60;;;;;;;;;;5052381;28;20240;-74
2022/03/25 03:35:52;;;;;;;0.70;0.60;;;;;;;;;;5053886;28;21583;-74
2022/03/25 03:38:18;;;;;;;0.80;0.80;;;;;;;;;;5053166;28;20196;-74
2022/03/25 03:40:46;;;;;;;0.70;0.70;;;;;;;;;;5052251;28;20189;-74
2022/03/25 03:43:13;;;;;;;0.70;0.70;;;;;;;;;;5052871;28;20625;-74
2022/03/25 03:45:41;;;;;;;0.70;0.70;;;;;;;;;;5052098;28;20247;-74
2022/03/25 03:48:08;;;;;;;0.73;0.73;;;;;;;;;;5053778;28;20197;-74
2022/03/25 03:50:35;;;;;;;0.82;0.80;;;;;;;;;;5054010;28;20281;-74
2022/03/25 03:53:03;;;;;;;0.70;0.65;;;;;;;;;;5051859;28;20209;-75
2022/03/25 03:55:31;;;;;;;0.70;0.65;;;;;;;;;;5052648;28;20194;-74
2022/03/25 03:57:58;;;;;;;0.80;0.80;;;;;;;;;;5053496;28;20264;-74
2022/03/25 04:00:25;;;;;;;0.70;0.65;;;;;;;;;;5053730;28;20273;-74
2022/03/25 04:02:54;;;;;;;0.70;0.60;;;;;;;;;;5049251;28;20186;-74
2022/03/25 04:05:21;;;;;;;0.70;0.60;;;;;;;;;;5053730;28;20202;-75
2022/03/25 04:07:48;;;;;;;0.70;0.63;;;;;;;;;;5053226;28;20213;-74
2022/03/25 04:10:18;;;;;;;0.70;0.60;;;;;;;;;;5052179;28;20217;-74
2022/03/25 04:12:45;;;;;;;0.70;0.70;;;;;;;;;;5052986;28;20240;-74
2022/03/25 04:15:12;;;;;;;0.70;0.60;;;;;;;;;;5053566;28;20273;-73
2022/03/25 04:17:40;;;;;;;0.70;0.65;;;;;;;;;;5051558;28;20529;-74
2022/03/25 04:20:10;;;;;;;0.70;0.70;;;;;;;;;;5051889;28;20276;-74
2022/03/25 04:22:37;;;;;;;0.70;0.60;;;;;;;;;;5052946;28;20213;-74
2022/03/25 04:25:05;;;;;;;0.70;0.57;;;;;;;;;;5051921;28;20235;-74
2022/03/25 04:27:33;;;;;;;0.70;0.60;;;;;;;;;;5054092;28;20185;-74
2022/03/25 04:29:59;;;;;;;0.70;0.65;;;;;;;;;;5053665;28;20186;-74
2022/03/25 04:32:26;;;;;;;0.77;0.60;;;;;;;;;;5053052;28;20220;-74
2022/03/25 04:34:53;;;;;;;0.70;0.70;;;;;;;;;;5031935;28;20202;-74
2022/03/25 04:37:21;;;;;;;0.70;0.60;;;;;;;;;;5032791;28;20537;-74
2022/03/25 04:39:48;;;;;;;0.80;0.70;;;;;;;;;;5036323;28;20213;-74
2022/03/25 04:42:15;;;;;;;0.90;0.90;;;;;;;;;;5057727;28;20193;-73
2022/03/25 04:44:43;;;;;;;0.80;0.80;;;;;;;;;;5059858;28;20169;-74
2022/03/25 04:47:12;;;;;;;0.75;0.70;;;;;;;;;;5058105;28;20208;-74
2022/03/25 04:49:38;;;;;;;0.70;0.60;;;;;;;;;;5056801;28;20193;-74
2022/03/25 04:52:07;;;;;;;0.70;0.70;;;;;;;;;;5056302;28;20241;-74
2022/03/25 04:54:35;;;;;;;0.80;0.80;;;;;;;;;;5057064;28;20196;-73
2022/03/25 04:57:05;;;;;;;0.70;0.60;;;;;;;;;;5055546;28;20189;-74
2022/03/25 04:59:34;;;;;;;0.70;0.70;;;;;;;;;;5054736;28;20267;-74
2022/03/25 05:02:02;;;;;;;0.60;0.52;;;;;;;;;;5039383;28;20190;-74
2022/03/25 05:04:29;;;;;;;0.70;0.70;;;;;;;;;;5055368;28;20199;-74
2022/03/25 05:06:56;;;;;;;0.65;0.55;;;;;;;;;;5055058;28;20303;-74
2022/03/25 05:09:22;;;;;;;0.70;0.70;;;;;;;;;;5055639;28;20292;-74
2022/03/25 05:11:51;;;;;;;0.70;0.60;;;;;;;;;;5057165;28;20670;-74
2022/03/25 05:14:18;;;;;;;0.88;0.88;;;;;;;;;;5056893;28;20251;-74
2022/03/25 05:16:44;;;;;;;0.75;0.70;;;;;;;;;;5052708;28;20255;-74
2022/03/25 05:19:11;;;;;;;0.70;0.70;;;;;;;;;;5053409;28;20197;-74
2022/03/25 05:21:38;;;;;;;0.70;0.63;;;;;;;;;;5053485;28;20205;-74
2022/03/25 05:24:09;;;;;;;0.70;0.70;;;;;;;;;;5053385;28;20196;-75
2022/03/25 05:26:36;;;;;;;0.70;0.60;;;;;;;;;;5054481;28;20638;-74
2022/03/25 05:29:06;;;;;;;0.70;0.60;;;;;;;;;;5054026;28;20180;-74
2022/03/25 05:31:33;;;;;;;0.70;0.70;;;;;;;;;;5053752;28;20193;-74
2022/03/25 05:33:59;;;;;;;0.70;0.60;;;;;;;;;;5052111;28;20247;-74
2022/03/25 05:36:26;;;;;;;0.70;0.60;;;;;;;;;;5052035;28;20229;-74
2022/03/25 05:38:53;;;;;;;0.70;0.60;;;;;;;;;;5054898;28;20200;-75
2022/03/25 05:41:19;;;;;;;0.68;0.60;;;;;;;;;;5070419;28;20255;-74
2022/03/25 05:43:46;;;;;;;1.15;1.05;;;;;;;;;;5053967;28;20665;-74
2022/03/25 05:46:14;;;;;;;0.70;0.70;;;;;;;;;;5054791;28;20672;-74
2022/03/25 05:48:41;;;;;;;0.70;0.70;;;;;;;;;;5053218;28;20593;-74
2022/03/25 05:51:10;;;;;;;0.70;0.70;;;;;;;;;;5053028;28;20252;-74
2022/03/25 05:53:36;;;;;;;0.70;0.70;;;;;;;;;;5052844;28;20221;-73
2022/03/25 05:56:04;;;;;;;1.35;1.25;;;;;;;;;;5054652;28;20193;-73
2022/03/25 05:58:31;;;;;;;0.73;0.73;;;;;;;;;;5048867;28;20300;-74
2022/03/25 06:00:59;;;;;;;0.70;0.60;;;;;;;;;;5054294;28;20197;-74
2022/03/25 06:03:28;;;;;;;0.70;0.70;;;;;;;;;;5054200;28;20235;-75
2022/03/25 06:05:56;;;;;;;0.70;0.60;;;;;;;;;;5053152;28;20271;-73
2022/03/25 06:08:23;;;;;;;1.02;1.02;;;;;;;;;;5069676;28;20189;-73
2022/03/25 06:10:53;;;;;;;0.70;0.70;;;;;;;;;;5054348;28;20193;-73
2022/03/25 06:13:20;;;;;;;0.70;0.70;;;;;;;;;;5053074;28;20185;-74
2022/03/25 06:15:47;;;;;;;0.70;0.70;;;;;;;;;;5054457;28;20187;-73
2022/03/25 06:18:14;;;;;;;0.80;0.75;;;;;;;;;;5054403;28;20594;-73
2022/03/25 06:20:42;;;;;;;1.27;1.17;;;;;;;;;;5069934;28;20190;-73
2022/03/25 06:23:10;;;;;;;0.80;0.80;;;;;;;;;;5056713;28;20197;-74
2022/03/25 06:25:52;;;;;;;1.38;1.27;;;;;;;;;;5055527;28;20595;-73
2022/03/25 06:28:21;;;;;;;0.70;0.70;;;;;;;;;;5054510;28;20221;-74
2022/03/25 06:30:49;;;;;;;0.70;0.68;;;;;;;;;;5053845;28;20189;-74
2022/03/25 06:33:16;;;;;;;0.80;0.80;;;;;;;;;;5052319;28;20304;-75
2022/03/25 06:36:01;;;;;;;0.70;0.70;;;;;;;;;;5131671;27;20986;-73
2022/03/25 06:38:28;;;;;;;0.80;0.80;;;;;;;;;;5130405;28;20704;-73
2022/03/25 06:40:54;;;;;;;0.80;0.80;;;;;;;;;;5113052;28;20218;-74
2022/03/25 06:43:21;;;;;;;0.70;0.68;;;;;;;;;;5130772;28;20175;-73
2022/03/25 06:45:48;;;;;;;0.80;0.80;;;;;;;;;;5131402;27;20187;-73
2022/03/25 06:48:15;;;;;;;0.70;0.70;;;;;;;;;;5116371;28;20200;-73
2022/03/25 06:50:42;;;;;;;0.70;0.70;;;;;;;;;;5110510;28;20555;-74
2022/03/25 06:53:11;;;;;;;1.42;1.10;;;;;;;;;;5125247;28;20187;-73
2022/03/25 06:55:40;;;;;;;0.73;0.73;;;;;;;;;;5130029;28;20563;-72
2022/03/25 06:58:09;;;;;;;0.70;0.70;;;;;;;;;;5131226;27;20574;-73
2022/03/25 07:00:36;;;;;;;0.70;0.70;;;;;;;;;;5118820;28;20279;-73
2022/03/25 07:03:04;;;;;;;0.80;0.80;;;;;;;;;;5113448;28;20191;-72
2022/03/25 07:05:32;;;;;;;0.80;0.77;;;;;;;;;;5129000;28;20213;-73
2022/03/25 07:07:59;;;;;;;0.80;0.70;;;;;;;;;;5129575;28;20553;-74
2022/03/25 07:10:27;;;;;;;0.85;0.85;;;;;;;;;;5129628;28;20248;-74
2022/03/25 07:12:55;;;;;;;1.52;1.42;;;;;;;;;;5130846;28;20175;-73
2022/03/25 07:15:23;;;;;;;0.85;0.85;;;;;;;;;;5129321;28;20246;-74
2022/03/25 07:17:50;;;;;;;0.70;0.60;;;;;;;;;;5130522;27;20195;-72
2022/03/25 07:20:18;;;;;;;1.25;1.15;;;;;;;;;;5129630;28;20178;-76
2022/03/25 07:22:45;;;;;;;0.70;0.70;;;;;;;;;;5125566;27;20208;-76
2022/03/25 07:25:13;;;;;;;0.90;0.80;;;;;;;;;;5110072;28;20188;-74
2022/03/25 07:27:41;;;;;;;1.20;1.10;;;;;;;;;;5110090;28;20215;-74
2022/03/25 07:30:09;;;;;;;0.80;0.70;;;;;;;;;;5110223;28;20206;-74
2022/03/25 07:32:36;;;;;;;0.70;0.60;;;;;;;;;;5110092;28;20274;-74
2022/03/25 07:35:03;;;;;;;0.83;0.83;;;;;;;;;;5127404;28;21080;-74
2022/03/25 07:37:33;;;;;;;0.80;0.70;;;;;;;;;;5130649;27;20437;-75
2022/03/25 07:40:00;;;;;;;1.07;0.97;;;;;;;;;;5129324;28;20440;-74
2022/03/25 07:42:28;;;;;;;0.80;0.80;;;;;;;;;;5129248;28;20463;-74
2022/03/25 07:44:57;;;;;;;1.23;1.03;;;;;;;;;;5112250;28;20519;-74
2022/03/25 07:47:24;;;;;;;0.70;0.70;;;;;;;;;;5115689;28;20413;-74
2022/03/25 07:49:50;;;;;;;0.90;0.90;;;;;;;;;;5115455;28;20449;-74
2022/03/25 07:52:17;;;;;;;1.20;1.10;;;;;;;;;;5113439;27;20457;-74
2022/03/25 07:54:44;;;;;;;4.73;2.50;;;;;;;;;;5122536;27;20460;-74
2022/03/25 07:57:11;;;;;;;1.20;1.10;;;;;;;;;;5116895;28;20416;-74
2022/03/25 07:59:37;;;;;;;0.70;0.60;;;;;;;;;;5115334;28;20440;-74
2022/03/25 08:02:08;;;;;;;0.80;0.80;;;;;;;;;;5116719;28;20410;-75
2022/03/25 08:04:35;;;;;;;0.80;0.80;;;;;;;;;;5097875;28;20802;-74
2022/03/25 08:07:02;;;;;;;0.80;0.70;;;;;;;;;;5116371;28;20450;-74
2022/03/25 08:09:28;;;;;;;0.83;0.83;;;;;;;;;;5116659;28;20479;-75
2022/03/25 08:11:55;;;;;;;3.73;3.37;;;;;;;;;;5116088;28;20436;-75
2022/03/25 08:14:22;;;;;;;0.93;0.93;;;;;;;;;;5115345;28;21039;-75
2022/03/25 08:16:49;;;;;;;1.33;1.23;;;;;;;;;;5116693;28;20906;-74
2022/03/25 08:19:18;;;;;;;5.90;1.40;;;;;;;;;;5116678;28;20465;-74
2022/03/25 08:21:48;;;;;;;1.80;1.70;;;;;;;;;;5115179;28;20453;-73
2022/03/25 08:29:47;;;;;;;5.70;2.20;;;;;;;;;;5098343;28;20468;-73
2022/03/25 08:32:16;;;;;;;1.90;1.77;;;;;;;;;;5094473;28;20434;-73
2022/03/25 08:34:44;;;;;;;3.50;2.00;;;;;;;;;;5111673;28;20472;-73
2022/03/25 08:37:11;;;;;;;1.70;1.60;;;;;;;;;;5114850;28;20861;-74
2022/03/25 08:39:38;;;;;;;3.33;1.50;;;;;;;;;;5110444;28;20413;-73
2022/03/25 08:42:08;;;;;;;2.20;1.83;;;;;;;;;;5115418;28;20774;-72
2022/03/25 08:44:34;;;;;;;5.20;2.37;;;;;;;;;;5114756;28;21078;-73
2022/03/25 08:47:03;;;;;;;1.90;1.47;;;;;;;;;;5094552;28;20426;-73
2022/03/25 08:49:32;;;;;;;2.63;1.63;;;;;;;;;;5093956;28;20420;-73
2022/03/25 08:52:01;;;;;;;1.80;1.63;;;;;;;;;;5094744;28;20417;-73
2022/03/25 08:54:27;;;;;;;1.03;0.93;;;;;;;;;;5096692;28;20434;-73
2022/03/25 08:56:54;;;;;;;2.23;1.33;;;;;;;;;;5095816;28;20416;-72
2022/03/25 08:59:22;;;;;;;1.10;1.00;;;;;;;;;;5092926;28;20430;-73
2022/03/25 09:01:50;;;;;;;4.33;1.53;;;;;;;;;;5093156;28;20420;-73
2022/03/25 09:04:18;;;;;;;1.43;1.30;;;;;;;;;;5093232;28;20468;-74
2022/03/25 09:06:44;;;;;;;3.10;1.20;;;;;;;;;;5093295;28;20424;-74
2022/03/25 09:09:13;;;;;;;3.07;2.73;;;;;;;;;;5094911;28;20442;-74
2022/03/25 09:11:41;;;;;;;4.40;2.10;;;;;;;;;;5094832;28;20999;-73
2022/03/25 09:14:07;;;;;;;1.63;1.53;;;;;;;;;;5093609;28;20470;-73
2022/03/25 09:16:36;;;;;;;2.80;1.27;;;;;;;;;;5094526;28;20791;-72
2022/03/25 09:19:03;;;;;;;4.33;3.93;;;;;;;;;;5109092;28;20769;-73
2022/03/25 09:21:29;;;;;;;3.00;2.23;;;;;;;;;;5111693;28;20473;-73
2022/03/25 09:23:56;;;;;;;1.70;1.60;;;;;;;;;;5114988;28;20478;-72
2022/03/25 09:26:25;;;;;;;4.03;2.63;;;;;;;;;;5113785;28;20449;-73
2022/03/25 09:28:52;;;;;;;1.97;1.83;;;;;;;;;;5096805;28;20425;-72
2022/03/25 09:31:18;;;;;;;2.43;2.23;;;;;;;;;;5092743;28;20434;-72
2022/03/25 09:36:58;;;;;;;1.40;1.20;;;;;;;;;;5094610;28;20446;-72
2022/03/25 09:39:25;;;;;;;3.33;2.50;;;;;;;;;;5093182;28;20491;-74
2022/03/25 09:41:56;;;;;;;2.20;1.97;;;;;;;;;;5093227;28;20498;-74
2022/03/25 09:44:23;;;;;;;8.10;2.37;;;;;;;;;;5093684;28;20441;-75
2022/03/25 09:46:52;;;;;;;1.37;1.27;;;;;;;;;;5095184;27;21028;-76
2022/03/25 09:49:20;;;;;;;1.00;0.87;;;;;;;;;;5112645;27;20506;-73
2022/03/25 09:51:50;;;;;;;2.33;1.53;;;;;;;;;;5134706;27;20456;-74
2022/03/25 09:54:17;;;;;;;3.73;3.23;;;;;;;;;;5134139;27;20497;-74
2022/03/25 09:56:43;;;;;;;3.00;2.53;;;;;;;;;;5135000;27;20453;-74
2022/03/25 09:59:15;;;;;;;2.00;1.80;;;;;;;;;;5131350;27;20440;-74
2022/03/25 10:01:44;;;;;;;4.00;1.47;;;;;;;;;;5092760;28;20464;-74
2022/03/25 10:04:26;;;;;;;2.20;1.70;;;;;;;;;;5092592;28;20874;-73
2022/03/25 10:06:55;;;;;;;3.40;1.83;;;;;;;;;;5106364;28;20488;-73
2022/03/25 10:09:22;;;;;;;0.90;0.90;;;;;;;;;;5114402;28;20437;-75
2022/03/25 10:11:48;;;;;;;1.60;1.50;;;;;;;;;;5114254;28;20426;-74
2022/03/25 10:14:18;;;;;;;1.30;1.20;;;;;;;;;;5113805;28;20437;-74
2022/03/25 10:16:48;;;;;;;1.40;1.30;;;;;;;;;;5115955;28;20544;-74
2022/03/25 10:19:17;;;;;;;3.20;1.80;;;;;;;;;;5116021;28;20444;-75
2022/03/25 10:21:51;;;;;;;1.53;0.80;;;;;;;;;;5116039;28;20824;-74
2022/03/25 10:24:34;;;;;;;2.63;1.53;;;;;;;;;;5115550;28;20773;-73
2022/03/25 10:27:11;;;;;;;1.30;1.20;;;;;;;;;;5113581;28;20452;-74
2022/03/25 10:29:42;;;;;;;2.43;1.17;;;;;;;;;;5114403;28;20429;-74
2022/03/25 10:32:10;;;;;;;1.63;1.33;;;;;;;;;;5108754;28;20761;-74
2022/03/25 10:34:38;;;;;;;0.90;0.87;;;;;;;;;;5093129;28;20997;-75
2022/03/25 10:37:05;;;;;;;1.30;1.17;;;;;;;;;;5093861;28;20623;-74
2022/03/25 10:39:32;;;;;;;0.80;0.70;;;;;;;;;;5095234;28;20406;-74
2022/03/25 10:42:05;;;;;;;0.70;0.57;;;;;;;;;;5093228;28;20418;-74
2022/03/25 10:44:33;;;;;;;0.70;0.60;;;;;;;;;;5093698;28;20430;-74
2022/03/25 10:47:18;;;;;;;1.80;1.70;;;;;;;;;;5092471;28;21064;-73
2022/03/25 10:49:48;;;;;;;0.77;0.63;;;;;;;;;;5093725;28;20434;-73
2022/03/25 10:52:19;;;;;;;0.93;0.87;;;;;;;;;;5098580;28;20462;-73
2022/03/25 10:55:16;;;;;;;1.27;1.17;;;;;;;;;;5093655;28;20402;-72
2022/03/25 10:57:50;;;;;;;0.70;0.60;;;;;;;;;;5093249;28;20877;-73
2022/03/25 11:00:28;;;;;;;1.00;0.90;;;;;;;;;;5093982;28;20537;-72
2022/03/25 11:02:56;;;;;;;1.00;0.80;;;;;;;;;;5093254;28;20525;-72
2022/03/25 11:05:25;;;;;;;0.80;0.60;;;;;;;;;;5092379;28;20800;-72
2022/03/25 11:07:52;;;;;;;0.80;0.60;;;;;;;;;;5091943;28;20466;-72
2022/03/25 11:10:18;;;;;;;0.80;0.70;;;;;;;;;;5092962;28;20426;-74
2022/03/25 11:12:47;;;;;;;2.03;1.93;;;;;;;;;;5098368;28;20426;-74
2022/03/25 11:15:15;;;;;;;0.77;0.67;;;;;;;;;;5115435;28;20508;-76
2022/03/25 11:17:43;;;;;;;1.00;0.83;;;;;;;;;;5116742;28;20384;-74
2022/03/25 11:20:14;;;;;;;0.80;0.70;;;;;;;;;;5125145;28;20384;-75
2022/03/25 11:22:42;;;;;;;8.30;1.57;;;;;;;;;;5112468;28;20432;-76
2022/03/25 11:25:11;;;;;;;0.80;0.80;;;;;;;;;;5128301;28;20423;-75
2022/03/25 11:27:40;;;;;;;2.00;1.00;;;;;;;;;;5132230;28;20380;-75
2022/03/25 11:30:09;;;;;;;1.03;0.97;;;;;;;;;;5121871;27;20418;-76
2022/03/25 11:32:46;;;;;;;1.33;1.23;;;;;;;;;;5128026;28;20411;-75
2022/03/25 11:35:18;;;;;;;1.00;0.90;;;;;;;;;;5121390;28;20411;-75
2022/03/25 11:37:47;;;;;;;1.00;0.90;;;;;;;;;;5123133;28;20481;-75
2022/03/25 11:40:25;;;;;;;1.50;1.27;;;;;;;;;;5102341;28;20531;-75
2022/03/25 11:43:18;;;;;;;0.80;0.70;;;;;;;;;;5120977;27;20464;-75
2022/03/25 11:45:45;;;;;;;0.80;0.70;;;;;;;;;;5126321;27;20412;-74
2022/03/25 11:48:34;;;;;;;1.77;1.20;;;;;;;;;;5117896;28;20485;-75
2022/03/25 11:51:23;;;;;;;2.00;1.83;;;;;;;;;;5098911;28;20527;-76
2022/03/25 11:53:51;;;;;;;0.80;0.70;;;;;;;;;;5120979;28;20452;-73
2022/03/25 11:56:18;;;;;;;0.80;0.70;;;;;;;;;;5120442;28;20552;-73
2022/03/25 11:59:08;;;;;;;0.80;0.70;;;;;;;;;;5118644;28;20402;-74
2022/03/25 12:01:35;;;;;;;1.43;1.33;;;;;;;;;;5112692;28;20449;-75
2022/03/25 12:04:01;;;;;;;2.33;2.13;;;;;;;;;;5101745;28;20501;-75
2022/03/25 12:06:49;;;;;;;1.17;1.07;;;;;;;;;;5106413;28;20448;-75
2022/03/25 12:09:19;;;;;;;0.70;0.60;;;;;;;;;;5104881;28;20509;-76
2022/03/25 12:11:50;;;;;;;1.30;1.20;;;;;;;;;;5102607;28;20944;-76
2022/03/25 12:14:17;;;;;;;0.80;0.80;;;;;;;;;;5098049;28;20410;-74
2022/03/25 12:16:57;;;;;;;0.90;0.90;;;;;;;;;;5097504;28;20458;-75
2022/03/25 12:19:51;;;;;;;0.80;0.73;;;;;;;;;;5100354;28;20418;-75
2022/03/25 12:22:30;;;;;;;0.83;0.83;;;;;;;;;;5092319;28;20481;-75
2022/03/25 12:24:58;;;;;;;0.80;0.70;;;;;;;;;;5122160;28;20418;-75
2022/03/25 12:27:37;;;;;;;0.73;0.60;;;;;;;;;;5106754;28;20451;-75
2022/03/25 12:30:05;;;;;;;0.80;0.80;;;;;;;;;;5128960;28;20417;-74
2022/03/25 12:32:33;;;;;;;0.70;0.60;;;;;;;;;;5121470;28;20434;-75
2022/03/25 12:35:02;;;;;;;0.80;0.70;;;;;;;;;;5120240;28;20449;-74
2022/03/25 12:37:32;;;;;;;0.70;0.70;;;;;;;;;;5119931;28;20473;-74
2022/03/25 12:40:11;;;;;;;1.07;0.87;;;;;;;;;;5119289;28;20442;-74
2022/03/25 12:42:38;;;;;;;0.80;0.70;;;;;;;;;;5121676;28;20417;-75
2022/03/25 12:45:05;;;;;;;0.93;0.90;;;;;;;;;;5117190;28;20856;-74
2022/03/25 12:47:37;;;;;;;0.80;0.70;;;;;;;;;;5113221;28;20486;-73
2022/03/25 12:50:05;;;;;;;1.00;0.80;;;;;;;;;;5086052;28;20781;-75
2022/03/25 12:52:34;;;;;;;0.80;0.80;;;;;;;;;;5103268;28;21009;-74
2022/03/25 12:55:07;;;;;;;0.70;0.70;;;;;;;;;;5108093;28;20410;-75
2022/03/25 12:57:39;;;;;;;1.00;0.90;;;;;;;;;;5102199;28;20454;-74
2022/03/25 13:00:07;;;;;;;0.90;0.90;;;;;;;;;;5108361;28;20414;-75
2022/03/25 13:02:36;;;;;;;7.03;1.80;;;;;;;;;;5100586;28;20862;-73
2022/03/25 13:05:11;;;;;;;1.90;0.93;;;;;;;;;;5099501;28;20921;-75
2022/03/25 13:08:07;;;;;;;0.80;0.77;;;;;;;;;;5098862;28;20394;-75
2022/03/25 13:10:39;;;;;;;0.80;0.70;;;;;;;;;;5098230;28;20430;-75
2022/03/25 13:13:07;;;;;;;2.40;0.90;;;;;;;;;;5097360;28;20430;-74
2022/03/25 13:15:35;;;;;;;2.40;1.10;;;;;;;;;;5078600;28;20855;-73
2022/03/25 13:18:03;;;;;;;0.70;0.60;;;;;;;;;;5095649;28;20529;-75
2022/03/25 13:20:31;;;;;;;0.80;0.70;;;;;;;;;;5080473;28;20517;-73
2022/03/25 13:22:59;;;;;;;0.70;0.70;;;;;;;;;;5106563;28;20429;-75
2022/03/25 13:25:29;;;;;;;2.00;1.37;;;;;;;;;;5115877;28;20438;-74
2022/03/25 13:27:57;;;;;;;0.80;0.70;;;;;;;;;;5100006;28;20404;-75
2022/03/25 13:30:24;;;;;;;0.70;0.70;;;;;;;;;;5104781;28;20438;-74
2022/03/25 13:33:03;;;;;;;0.80;0.70;;;;;;;;;;5100745;28;20834;-74
2022/03/25 13:35:32;;;;;;;0.70;0.60;;;;;;;;;;5099567;28;20434;-74
2022/03/25 13:37:59;;;;;;;0.97;0.87;;;;;;;;;;5103728;27;20492;-74
2022/03/25 13:40:28;;;;;;;1.40;1.03;;;;;;;;;;5126321;27;20449;-75
2022/03/25 13:42:55;;;;;;;0.73;0.70;;;;;;;;;;5135488;27;20428;-74
2022/03/25 13:45:23;;;;;;;0.80;0.77;;;;;;;;;;5136127;27;20513;-74
2022/03/25 13:48:01;;;;;;;1.00;0.90;;;;;;;;;;5136679;27;20396;-74
2022/03/25 13:50:29;;;;;;;1.40;1.30;;;;;;;;;;5137153;27;20415;-73
2022/03/25 13:52:59;;;;;;;0.90;0.90;;;;;;;;;;5096249;28;20723;-74
2022/03/25 13:55:32;;;;;;;1.23;1.13;;;;;;;;;;5102543;28;20496;-76
2022/03/25 13:58:00;;;;;;;0.80;0.80;;;;;;;;;;5109714;28;20453;-76
2022/03/25 14:00:42;;;;;;;0.90;0.80;;;;;;;;;;5127917;28;20513;-76
2022/03/25 14:03:16;;;;;;;0.80;0.80;;;;;;;;;;5129939;28;20395;-75
2022/03/25 14:05:44;;;;;;;0.80;0.70;;;;;;;;;;5123041;28;20380;-75
2022/03/25 14:08:14;;;;;;;0.80;0.80;;;;;;;;;;5117221;28;20445;-75
2022/03/25 14:11:00;;;;;;;1.10;0.90;;;;;;;;;;5104864;28;20433;-75
2022/03/25 14:13:28;;;;;;;0.70;0.70;;;;;;;;;;5121192;28;20451;-76
2022/03/25 14:16:10;;;;;;;2.50;1.37;;;;;;;;;;5114518;28;20536;-74
2022/03/25 14:18:47;;;;;;;0.80;0.70;;;;;;;;;;5116099;28;20801;-74
2022/03/25 14:21:22;;;;;;;0.70;0.60;;;;;;;;;;5115309;28;20439;-75
2022/03/25 14:23:48;;;;;;;0.70;0.60;;;;;;;;;;5122585;28;20383;-75
2022/03/25 14:26:15;;;;;;;0.97;0.80;;;;;;;;;;5120931;28;20408;-75
2022/03/25 14:28:44;;;;;;;0.80;0.80;;;;;;;;;;5122562;28;20860;-75
2022/03/25 14:31:11;;;;;;;0.83;0.83;;;;;;;;;;5103290;28;20751;-75
2022/03/25 14:33:39;;;;;;;0.70;0.60;;;;;;;;;;5111953;28;20416;-74
2022/03/25 14:36:06;;;;;;;0.80;0.70;;;;;;;;;;5115384;28;20424;-73
2022/03/25 14:38:33;;;;;;;0.70;0.60;;;;;;;;;;5113236;28;20449;-75
2022/03/25 14:40:59;;;;;;;1.63;1.37;;;;;;;;;;5117389;28;20435;-75
2022/03/25 14:43:27;;;;;;;1.00;0.90;;;;;;;;;;5110439;28;20450;-75
2022/03/25 14:45:55;;;;;;;4.20;1.30;;;;;;;;;;5115780;28;20408;-74
2022/03/25 14:48:22;;;;;;;0.97;0.93;;;;;;;;;;5114077;28;20396;-74
2022/03/25 14:50:49;;;;;;;0.93;0.87;;;;;;;;;;5113806;28;20396;-73
2022/03/25 14:53:16;;;;;;;1.30;1.20;;;;;;;;;;5092987;28;21004;-74
2022/03/25 14:55:43;;;;;;;0.90;0.90;;;;;;;;;;5103121;28;20412;-74
2022/03/25 14:58:09;;;;;;;0.70;0.70;;;;;;;;;;5113476;28;20510;-73
2022/03/25 15:00:36;;;;;;;0.97;0.90;;;;;;;;;;5117377;28;20425;-75
2022/03/25 15:03:04;;;;;;;0.73;0.70;;;;;;;;;;5119620;28;20494;-73
2022/03/25 15:05:32;;;;;;;0.80;0.73;;;;;;;;;;5117402;28;21017;-72